sensor_id;sensor_type;location;lat;lon;timestamp;temperature;humidity
48575;DHT22;34352;51.084;3.712;2024-02-26T00:00:59;7.30;85.20
48575;DHT22;34352;51.084;3.712;2024-02-26T00:03:25;7.30;87.00
48575;DHT22;34352;51.084;3.712;2024-02-26T00:05:52;7.40;87.10
48575;DHT22;34352;51.084;3.712;2024-02-26T00:08:19;7.30;87.00
48575;DHT22;34352;51.084;3.712;2024-02-26T00:10:45;7.20;88.40
48575;DHT22;34352;51.084;3.712;2024-02-26T00:13:11;7.30;89.90
48575;DHT22;34352;51.084;3.712;2024-02-26T00:15:36;7.30;90.50
48575;DHT22;34352;51.084;3.712;2024-02-26T00:18:02;7.40;90.50
48575;DHT22;34352;51.084;3.712;2024-02-26T00:20:30;7.40;89.50
48575;DHT22;34352;51.084;3.712;2024-02-26T00:22:58;7.30;90.00
48575;DHT22;34352;51.084;3.712;2024-02-26T00:25:24;7.30;90.80
48575;DHT22;34352;51.084;3.712;2024-02-26T00:27:51;7.20;91.70
48575;DHT22;34352;51.084;3.712;2024-02-26T00:30:17;7.20;92.60
48575;DHT22;34352;51.084;3.712;2024-02-26T00:32:45;7.20;92.20
48575;DHT22;34352;51.084;3.712;2024-02-26T00:35:10;7.10;92.90
48575;DHT22;34352;51.084;3.712;2024-02-26T00:37:36;7.10;93.80
48575;DHT22;34352;51.084;3.712;2024-02-26T00:40:04;7.00;93.80
48575;DHT22;34352;51.084;3.712;2024-02-26T00:42:31;7.00;95.00
48575;DHT22;34352;51.084;3.712;2024-02-26T00:44:57;7.00;94.60
48575;DHT22;34352;51.084;3.712;2024-02-26T00:47:23;7.00;95.20
48575;DHT22;34352;51.084;3.712;2024-02-26T00:49:50;7.00;95.00
48575;DHT22;34352;51.084;3.712;2024-02-26T00:52:17;7.00;95.60
48575;DHT22;34352;51.084;3.712;2024-02-26T00:54:42;7.00;95.70
48575;DHT22;34352;51.084;3.712;2024-02-26T00:57:13;7.00;95.90
48575;DHT22;34352;51.084;3.712;2024-02-26T00:59:39;6.90;96.50
48575;DHT22;34352;51.084;3.712;2024-02-26T01:02:04;7.00;96.50
48575;DHT22;34352;51.084;3.712;2024-02-26T01:04:32;7.00;96.60
48575;DHT22;34352;51.084;3.712;2024-02-26T01:06:59;6.90;96.40
48575;DHT22;34352;51.084;3.712;2024-02-26T01:09:25;7.00;96.20
48575;DHT22;34352;51.084;3.712;2024-02-26T01:11:51;7.00;96.60
48575;DHT22;34352;51.084;3.712;2024-02-26T01:14:17;7.00;96.50
48575;DHT22;34352;51.084;3.712;2024-02-26T01:16:43;7.00;96.20
48575;DHT22;34352;51.084;3.712;2024-02-26T01:19:11;7.00;96.30
48575;DHT22;34352;51.084;3.712;2024-02-26T01:21:36;6.90;96.30
48575;DHT22;34352;51.084;3.712;2024-02-26T01:24:02;6.90;96.80
48575;DHT22;34352;51.084;3.712;2024-02-26T01:26:29;7.00;96.10
48575;DHT22;34352;51.084;3.712;2024-02-26T01:28:55;6.90;96.50
48575;DHT22;34352;51.084;3.712;2024-02-26T01:31:21;6.90;96.80
48575;DHT22;34352;51.084;3.712;2024-02-26T01:33:47;6.90;97.00
48575;DHT22;34352;51.084;3.712;2024-02-26T01:36:13;6.90;96.90
48575;DHT22;34352;51.084;3.712;2024-02-26T01:38:38;7.00;97.00
48575;DHT22;34352;51.084;3.712;2024-02-26T01:41:04;7.10;96.70
48575;DHT22;34352;51.084;3.712;2024-02-26T01:43:36;7.00;96.50
48575;DHT22;34352;51.084;3.712;2024-02-26T01:46:03;6.90;96.70
48575;DHT22;34352;51.084;3.712;2024-02-26T01:48:29;6.90;97.30
48575;DHT22;34352;51.084;3.712;2024-02-26T01:50:55;6.80;97.30
48575;DHT22;34352;51.084;3.712;2024-02-26T01:53:29;6.80;98.30
48575;DHT22;34352;51.084;3.712;2024-02-26T01:55:56;6.80;98.60
48575;DHT22;34352;51.084;3.712;2024-02-26T01:58:24;6.80;99.10
48575;DHT22;34352;51.084;3.712;2024-02-26T02:00:51;6.80;99.20
48575;DHT22;34352;51.084;3.712;2024-02-26T02:03:17;6.80;99.40
48575;DHT22;34352;51.084;3.712;2024-02-26T02:05:43;6.80;99.60
48575;DHT22;34352;51.084;3.712;2024-02-26T02:08:10;6.70;99.90
48575;DHT22;34352;51.084;3.712;2024-02-26T02:10:43;6.70;99.90
48575;DHT22;34352;51.084;3.712;2024-02-26T02:13:09;6.70;99.90
48575;DHT22;34352;51.084;3.712;2024-02-26T02:15:35;6.70;99.90
48575;DHT22;34352;51.084;3.712;2024-02-26T02:18:01;6.70;99.90
48575;DHT22;34352;51.084;3.712;2024-02-26T02:20:36;6.80;99.90
48575;DHT22;34352;51.084;3.712;2024-02-26T02:23:03;6.80;99.90
48575;DHT22;34352;51.084;3.712;2024-02-26T02:25:31;6.80;99.90
48575;DHT22;34352;51.084;3.712;2024-02-26T02:27:56;6.80;99.90
48575;DHT22;34352;51.084;3.712;2024-02-26T02:30:29;6.80;99.90
48575;DHT22;34352;51.084;3.712;2024-02-26T02:32:55;6.80;99.90
48575;DHT22;34352;51.084;3.712;2024-02-26T02:35:22;6.80;99.90
48575;DHT22;34352;51.084;3.712;2024-02-26T02:37:49;6.70;99.90
48575;DHT22;34352;51.084;3.712;2024-02-26T02:40:15;6.80;99.90
48575;DHT22;34352;51.084;3.712;2024-02-26T02:42:40;6.70;99.90
48575;DHT22;34352;51.084;3.712;2024-02-26T02:45:06;6.70;99.90
48575;DHT22;34352;51.084;3.712;2024-02-26T02:47:36;6.80;99.90
48575;DHT22;34352;51.084;3.712;2024-02-26T02:50:04;6.70;99.90
48575;DHT22;34352;51.084;3.712;2024-02-26T02:52:41;6.70;99.90
48575;DHT22;34352;51.084;3.712;2024-02-26T02:55:07;6.70;99.90
48575;DHT22;34352;51.084;3.712;2024-02-26T02:57:33;6.70;99.90
48575;DHT22;34352;51.084;3.712;2024-02-26T03:00:17;6.60;99.90
48575;DHT22;34352;51.084;3.712;2024-02-26T03:02:59;6.70;99.90
48575;DHT22;34352;51.084;3.712;2024-02-26T03:05:25;6.70;99.90
48575;DHT22;34352;51.084;3.712;2024-02-26T03:07:53;6.60;99.90
48575;DHT22;34352;51.084;3.712;2024-02-26T03:10:18;6.60;99.90
48575;DHT22;34352;51.084;3.712;2024-02-26T03:12:46;6.40;99.90
48575;DHT22;34352;51.084;3.712;2024-02-26T03:15:11;6.50;99.90
48575;DHT22;34352;51.084;3.712;2024-02-26T03:17:37;6.50;99.90
48575;DHT22;34352;51.084;3.712;2024-02-26T03:20:03;6.40;99.90
48575;DHT22;34352;51.084;3.712;2024-02-26T03:22:30;6.40;99.90
48575;DHT22;34352;51.084;3.712;2024-02-26T03:24:59;6.50;99.90
48575;DHT22;34352;51.084;3.712;2024-02-26T03:27:25;6.40;99.90
48575;DHT22;34352;51.084;3.712;2024-02-26T03:29:51;6.30;99.90
48575;DHT22;34352;51.084;3.712;2024-02-26T03:32:20;6.30;99.90
48575;DHT22;34352;51.084;3.712;2024-02-26T03:34:45;6.30;99.90
48575;DHT22;34352;51.084;3.712;2024-02-26T03:37:11;6.20;99.90
48575;DHT22;34352;51.084;3.712;2024-02-26T03:39:46;6.20;99.90
48575;DHT22;34352;51.084;3.712;2024-02-26T03:42:42;6.50;99.90
48575;DHT22;34352;51.084;3.712;2024-02-26T03:45:19;6.30;99.90
48575;DHT22;34352;51.084;3.712;2024-02-26T03:47:47;6.20;99.90
48575;DHT22;34352;51.084;3.712;2024-02-26T03:50:14;6.30;99.90
48575;DHT22;34352;51.084;3.712;2024-02-26T03:52:43;6.30;99.90
48575;DHT22;34352;51.084;3.712;2024-02-26T03:55:39;6.20;99.90
48575;DHT22;34352;51.084;3.712;2024-02-26T03:58:08;6.30;99.90
48575;DHT22;34352;51.084;3.712;2024-02-26T04:00:38;6.30;99.90
48575;DHT22;34352;51.084;3.712;2024-02-26T04:03:04;6.30;99.90
48575;DHT22;34352;51.084;3.712;2024-02-26T04:05:31;6.30;99.90
48575;DHT22;34352;51.084;3.712;2024-02-26T04:07:57;6.30;99.90
48575;DHT22;34352;51.084;3.712;2024-02-26T04:10:25;6.30;99.90
48575;DHT22;34352;51.084;3.712;2024-02-26T04:12:52;6.30;99.90
48575;DHT22;34352;51.084;3.712;2024-02-26T04:15:23;6.30;99.90
48575;DHT22;34352;51.084;3.712;2024-02-26T04:17:50;6.30;99.90
48575;DHT22;34352;51.084;3.712;2024-02-26T04:20:17;6.30;99.90
48575;DHT22;34352;51.084;3.712;2024-02-26T04:22:46;6.30;99.90
48575;DHT22;34352;51.084;3.712;2024-02-26T04:25:14;6.40;99.90
48575;DHT22;34352;51.084;3.712;2024-02-26T04:27:40;6.40;99.90
48575;DHT22;34352;51.084;3.712;2024-02-26T04:30:07;6.40;99.90
48575;DHT22;34352;51.084;3.712;2024-02-26T04:32:34;6.30;99.90
48575;DHT22;34352;51.084;3.712;2024-02-26T04:35:03;6.40;99.90
48575;DHT22;34352;51.084;3.712;2024-02-26T04:37:28;6.30;99.90
48575;DHT22;34352;51.084;3.712;2024-02-26T04:40:03;6.40;99.90
48575;DHT22;34352;51.084;3.712;2024-02-26T04:42:30;6.40;99.90
48575;DHT22;34352;51.084;3.712;2024-02-26T04:44:59;6.40;99.90
48575;DHT22;34352;51.084;3.712;2024-02-26T04:47:25;6.30;99.90
48575;DHT22;34352;51.084;3.712;2024-02-26T04:49:51;6.30;99.90
48575;DHT22;34352;51.084;3.712;2024-02-26T04:52:18;6.30;99.90
48575;DHT22;34352;51.084;3.712;2024-02-26T04:54:44;6.40;99.90
48575;DHT22;34352;51.084;3.712;2024-02-26T04:57:10;6.30;99.90
48575;DHT22;34352;51.084;3.712;2024-02-26T04:59:37;6.20;99.90
48575;DHT22;34352;51.084;3.712;2024-02-26T05:02:03;6.30;99.90
48575;DHT22;34352;51.084;3.712;2024-02-26T05:04:31;6.30;99.90
48575;DHT22;34352;51.084;3.712;2024-02-26T05:07:05;6.40;99.90
48575;DHT22;34352;51.084;3.712;2024-02-26T05:09:31;6.30;99.90
48575;DHT22;34352;51.084;3.712;2024-02-26T05:11:59;6.20;99.90
48575;DHT22;34352;51.084;3.712;2024-02-26T05:14:24;6.30;99.90
48575;DHT22;34352;51.084;3.712;2024-02-26T05:16:50;6.30;99.90
48575;DHT22;34352;51.084;3.712;2024-02-26T05:19:16;6.30;99.90
48575;DHT22;34352;51.084;3.712;2024-02-26T05:21:41;6.30;99.90
48575;DHT22;34352;51.084;3.712;2024-02-26T05:24:09;6.30;99.90
48575;DHT22;34352;51.084;3.712;2024-02-26T05:26:37;6.30;99.90
48575;DHT22;34352;51.084;3.712;2024-02-26T05:29:08;6.20;99.90
48575;DHT22;34352;51.084;3.712;2024-02-26T05:31:34;6.20;99.90
48575;DHT22;34352;51.084;3.712;2024-02-26T05:33:59;6.30;99.90
48575;DHT22;34352;51.084;3.712;2024-02-26T05:36:25;6.30;99.90
48575;DHT22;34352;51.084;3.712;2024-02-26T05:38:51;6.30;99.90
48575;DHT22;34352;51.084;3.712;2024-02-26T05:41:18;6.20;99.90
48575;DHT22;34352;51.084;3.712;2024-02-26T05:43:50;6.30;99.90
48575;DHT22;34352;51.084;3.712;2024-02-26T05:46:21;6.30;99.90
48575;DHT22;34352;51.084;3.712;2024-02-26T05:48:50;6.30;99.90
48575;DHT22;34352;51.084;3.712;2024-02-26T05:51:17;6.20;99.90
48575;DHT22;34352;51.084;3.712;2024-02-26T05:53:51;6.40;99.90
48575;DHT22;34352;51.084;3.712;2024-02-26T05:56:22;6.30;99.90
48575;DHT22;34352;51.084;3.712;2024-02-26T05:58:47;6.30;99.90
48575;DHT22;34352;51.084;3.712;2024-02-26T06:01:14;6.20;99.90
48575;DHT22;34352;51.084;3.712;2024-02-26T06:03:41;6.40;99.90
48575;DHT22;34352;51.084;3.712;2024-02-26T06:06:07;6.30;99.90
48575;DHT22;34352;51.084;3.712;2024-02-26T06:08:33;6.40;99.90
48575;DHT22;34352;51.084;3.712;2024-02-26T06:10:59;6.40;99.90
48575;DHT22;34352;51.084;3.712;2024-02-26T06:13:26;6.30;99.90
48575;DHT22;34352;51.084;3.712;2024-02-26T06:15:53;6.20;99.90
48575;DHT22;34352;51.084;3.712;2024-02-26T06:18:26;6.30;99.90
48575;DHT22;34352;51.084;3.712;2024-02-26T06:20:53;6.20;99.90
48575;DHT22;34352;51.084;3.712;2024-02-26T06:23:21;6.20;99.90
48575;DHT22;34352;51.084;3.712;2024-02-26T06:25:47;6.20;99.90
48575;DHT22;34352;51.084;3.712;2024-02-26T06:28:40;6.40;99.90
48575;DHT22;34352;51.084;3.712;2024-02-26T06:31:08;6.20;99.90
48575;DHT22;34352;51.084;3.712;2024-02-26T06:33:53;6.20;99.90
48575;DHT22;34352;51.084;3.712;2024-02-26T06:36:22;6.10;99.90
48575;DHT22;34352;51.084;3.712;2024-02-26T06:38:49;6.10;99.90
48575;DHT22;34352;51.084;3.712;2024-02-26T06:41:49;6.10;99.90
48575;DHT22;34352;51.084;3.712;2024-02-26T06:44:34;6.10;99.90
48575;DHT22;34352;51.084;3.712;2024-02-26T06:47:20;6.10;99.90
48575;DHT22;34352;51.084;3.712;2024-02-26T06:49:45;6.10;99.90
48575;DHT22;34352;51.084;3.712;2024-02-26T06:52:11;6.10;99.90
48575;DHT22;34352;51.084;3.712;2024-02-26T06:54:38;6.10;99.90
48575;DHT22;34352;51.084;3.712;2024-02-26T06:57:04;6.10;99.90
48575;DHT22;34352;51.084;3.712;2024-02-26T06:59:31;6.10;99.90
48575;DHT22;34352;51.084;3.712;2024-02-26T07:01:57;6.00;99.90
48575;DHT22;34352;51.084;3.712;2024-02-26T07:04:27;6.20;99.90
48575;DHT22;34352;51.084;3.712;2024-02-26T07:06:52;6.10;99.90
48575;DHT22;34352;51.084;3.712;2024-02-26T07:09:18;6.00;99.90
48575;DHT22;34352;51.084;3.712;2024-02-26T07:12:07;6.20;99.90
48575;DHT22;34352;51.084;3.712;2024-02-26T07:17:45;6.10;99.90
48575;DHT22;34352;51.084;3.712;2024-02-26T07:20:21;6.10;99.90
48575;DHT22;34352;51.084;3.712;2024-02-26T07:22:56;6.20;99.90
48575;DHT22;34352;51.084;3.712;2024-02-26T07:25:30;6.00;99.90
48575;DHT22;34352;51.084;3.712;2024-02-26T07:27:59;6.10;99.90
48575;DHT22;34352;51.084;3.712;2024-02-26T07:30:24;6.10;99.90
48575;DHT22;34352;51.084;3.712;2024-02-26T07:33:03;6.10;99.90
48575;DHT22;34352;51.084;3.712;2024-02-26T07:35:28;6.20;99.90
48575;DHT22;34352;51.084;3.712;2024-02-26T07:37:55;6.20;99.90
48575;DHT22;34352;51.084;3.712;2024-02-26T07:40:21;6.10;99.90
48575;DHT22;34352;51.084;3.712;2024-02-26T07:42:52;6.20;99.90
48575;DHT22;34352;51.084;3.712;2024-02-26T07:45:17;6.20;99.90
48575;DHT22;34352;51.084;3.712;2024-02-26T07:47:46;6.20;99.90
48575;DHT22;34352;51.084;3.712;2024-02-26T07:50:17;6.20;99.90
48575;DHT22;34352;51.084;3.712;2024-02-26T07:53:01;6.20;99.90
48575;DHT22;34352;51.084;3.712;2024-02-26T07:55:40;6.20;99.90
48575;DHT22;34352;51.084;3.712;2024-02-26T08:01:48;6.20;99.90
48575;DHT22;34352;51.084;3.712;2024-02-26T08:04:14;6.10;99.90
48575;DHT22;34352;51.084;3.712;2024-02-26T08:06:42;6.20;99.90
48575;DHT22;34352;51.084;3.712;2024-02-26T08:09:10;6.20;99.90
48575;DHT22;34352;51.084;3.712;2024-02-26T08:11:47;6.20;99.90
48575;DHT22;34352;51.084;3.712;2024-02-26T08:14:13;6.20;99.90
48575;DHT22;34352;51.084;3.712;2024-02-26T08:16:39;6.20;99.90
48575;DHT22;34352;51.084;3.712;2024-02-26T08:19:04;6.20;99.90
48575;DHT22;34352;51.084;3.712;2024-02-26T08:21:32;6.20;99.90
48575;DHT22;34352;51.084;3.712;2024-02-26T08:24:02;6.20;99.90
48575;DHT22;34352;51.084;3.712;2024-02-26T08:26:33;6.20;99.90
48575;DHT22;34352;51.084;3.712;2024-02-26T08:29:01;6.20;99.90
48575;DHT22;34352;51.084;3.712;2024-02-26T08:31:27;6.20;99.90
48575;DHT22;34352;51.084;3.712;2024-02-26T08:33:55;6.20;99.90
48575;DHT22;34352;51.084;3.712;2024-02-26T08:36:27;6.20;99.90
48575;DHT22;34352;51.084;3.712;2024-02-26T08:39:02;6.20;99.90
48575;DHT22;34352;51.084;3.712;2024-02-26T08:41:29;6.20;99.90
48575;DHT22;34352;51.084;3.712;2024-02-26T08:43:56;6.10;99.90
48575;DHT22;34352;51.084;3.712;2024-02-26T08:46:24;6.10;99.90
48575;DHT22;34352;51.084;3.712;2024-02-26T08:48:50;6.10;99.90
48575;DHT22;34352;51.084;3.712;2024-02-26T08:51:16;6.10;99.90
48575;DHT22;34352;51.084;3.712;2024-02-26T08:53:48;6.10;99.90
48575;DHT22;34352;51.084;3.712;2024-02-26T08:56:38;6.20;99.90
48575;DHT22;34352;51.084;3.712;2024-02-26T08:59:05;6.20;99.90
48575;DHT22;34352;51.084;3.712;2024-02-26T09:01:33;6.10;99.90
48575;DHT22;34352;51.084;3.712;2024-02-26T09:03:59;6.10;99.90
48575;DHT22;34352;51.084;3.712;2024-02-26T09:06:35;6.10;99.90
48575;DHT22;34352;51.084;3.712;2024-02-26T09:09:03;6.00;99.90
48575;DHT22;34352;51.084;3.712;2024-02-26T09:11:32;6.00;99.90
48575;DHT22;34352;51.084;3.712;2024-02-26T09:14:00;6.00;99.90
48575;DHT22;34352;51.084;3.712;2024-02-26T09:16:32;6.10;99.90
48575;DHT22;34352;51.084;3.712;2024-02-26T09:18:58;5.90;99.90
48575;DHT22;34352;51.084;3.712;2024-02-26T09:21:29;5.90;99.90
48575;DHT22;34352;51.084;3.712;2024-02-26T09:23:55;5.90;99.90
48575;DHT22;34352;51.084;3.712;2024-02-26T09:26:23;5.90;99.90
48575;DHT22;34352;51.084;3.712;2024-02-26T09:28:49;5.90;99.90
48575;DHT22;34352;51.084;3.712;2024-02-26T09:31:17;5.90;99.90
48575;DHT22;34352;51.084;3.712;2024-02-26T09:33:44;6.00;99.90
48575;DHT22;34352;51.084;3.712;2024-02-26T09:36:12;6.00;99.90
48575;DHT22;34352;51.084;3.712;2024-02-26T09:38:40;5.90;99.90
48575;DHT22;34352;51.084;3.712;2024-02-26T09:41:06;6.00;99.90
48575;DHT22;34352;51.084;3.712;2024-02-26T09:43:36;6.00;99.90
48575;DHT22;34352;51.084;3.712;2024-02-26T09:46:03;6.00;99.90
48575;DHT22;34352;51.084;3.712;2024-02-26T09:48:31;6.10;99.90
48575;DHT22;34352;51.084;3.712;2024-02-26T09:50:58;6.10;99.90
48575;DHT22;34352;51.084;3.712;2024-02-26T09:53:33;6.00;99.90
48575;DHT22;34352;51.084;3.712;2024-02-26T09:56:22;6.00;99.90
48575;DHT22;34352;51.084;3.712;2024-02-26T09:58:52;6.10;99.90
48575;DHT22;34352;51.084;3.712;2024-02-26T10:01:20;6.10;99.90
48575;DHT22;34352;51.084;3.712;2024-02-26T10:03:53;6.00;99.90
48575;DHT22;34352;51.084;3.712;2024-02-26T10:06:21;6.00;99.90
48575;DHT22;34352;51.084;3.712;2024-02-26T10:08:49;6.00;99.90
48575;DHT22;34352;51.084;3.712;2024-02-26T10:11:16;6.00;99.90
48575;DHT22;34352;51.084;3.712;2024-02-26T10:13:43;6.10;99.90
48575;DHT22;34352;51.084;3.712;2024-02-26T10:16:11;6.00;99.90
48575;DHT22;34352;51.084;3.712;2024-02-26T10:18:48;6.10;99.90
48575;DHT22;34352;51.084;3.712;2024-02-26T10:21:16;6.10;99.90
48575;DHT22;34352;51.084;3.712;2024-02-26T10:23:47;6.10;99.90
48575;DHT22;34352;51.084;3.712;2024-02-26T10:26:15;6.00;99.90
48575;DHT22;34352;51.084;3.712;2024-02-26T10:28:45;6.00;99.90
48575;DHT22;34352;51.084;3.712;2024-02-26T10:31:13;6.00;99.90
48575;DHT22;34352;51.084;3.712;2024-02-26T10:33:43;6.00;99.90
48575;DHT22;34352;51.084;3.712;2024-02-26T10:36:10;6.10;99.90
48575;DHT22;34352;51.084;3.712;2024-02-26T10:38:37;6.10;99.90
48575;DHT22;34352;51.084;3.712;2024-02-26T10:41:04;6.20;99.90
48575;DHT22;34352;51.084;3.712;2024-02-26T10:43:32;6.20;99.90
48575;DHT22;34352;51.084;3.712;2024-02-26T10:46:00;6.20;99.90
48575;DHT22;34352;51.084;3.712;2024-02-26T10:48:26;6.20;99.90
48575;DHT22;34352;51.084;3.712;2024-02-26T10:50:55;6.20;99.90
48575;DHT22;34352;51.084;3.712;2024-02-26T10:53:29;6.20;99.90
48575;DHT22;34352;51.084;3.712;2024-02-26T10:55:59;6.20;99.90
48575;DHT22;34352;51.084;3.712;2024-02-26T10:58:31;6.20;99.90
48575;DHT22;34352;51.084;3.712;2024-02-26T11:00:57;6.20;99.90
48575;DHT22;34352;51.084;3.712;2024-02-26T11:03:25;6.20;99.90
48575;DHT22;34352;51.084;3.712;2024-02-26T11:05:52;6.20;99.90
48575;DHT22;34352;51.084;3.712;2024-02-26T11:08:22;6.30;99.90
48575;DHT22;34352;51.084;3.712;2024-02-26T11:10:53;6.20;99.90
48575;DHT22;34352;51.084;3.712;2024-02-26T11:13:21;6.20;99.90
48575;DHT22;34352;51.084;3.712;2024-02-26T11:15:50;6.30;99.90
48575;DHT22;34352;51.084;3.712;2024-02-26T11:18:19;6.30;99.90
48575;DHT22;34352;51.084;3.712;2024-02-26T11:20:46;6.30;99.90
48575;DHT22;34352;51.084;3.712;2024-02-26T11:23:12;6.70;99.90
48575;DHT22;34352;51.084;3.712;2024-02-26T11:25:45;6.50;99.90
48575;DHT22;34352;51.084;3.712;2024-02-26T11:28:15;6.40;99.90
48575;DHT22;34352;51.084;3.712;2024-02-26T11:30:46;6.40;99.90
48575;DHT22;34352;51.084;3.712;2024-02-26T11:33:14;6.40;99.90
48575;DHT22;34352;51.084;3.712;2024-02-26T11:35:40;6.40;99.90
48575;DHT22;34352;51.084;3.712;2024-02-26T11:38:06;6.40;99.90
48575;DHT22;34352;51.084;3.712;2024-02-26T11:40:33;6.40;99.90
48575;DHT22;34352;51.084;3.712;2024-02-26T11:43:04;6.40;99.90
48575;DHT22;34352;51.084;3.712;2024-02-26T11:48:16;6.50;99.90
48575;DHT22;34352;51.084;3.712;2024-02-26T11:50:53;6.60;99.90
48575;DHT22;34352;51.084;3.712;2024-02-26T11:53:46;6.50;99.90
48575;DHT22;34352;51.084;3.712;2024-02-26T11:56:33;6.40;99.90
48575;DHT22;34352;51.084;3.712;2024-02-26T11:59:10;6.40;99.90
48575;DHT22;34352;51.084;3.712;2024-02-26T12:04:19;6.30;99.90
48575;DHT22;34352;51.084;3.712;2024-02-26T12:06:49;6.40;99.90
48575;DHT22;34352;51.084;3.712;2024-02-26T12:09:38;6.40;99.90
48575;DHT22;34352;51.084;3.712;2024-02-26T12:12:09;6.40;99.90
48575;DHT22;34352;51.084;3.712;2024-02-26T12:14:40;6.30;99.90
48575;DHT22;34352;51.084;3.712;2024-02-26T12:17:08;6.40;99.90
48575;DHT22;34352;51.084;3.712;2024-02-26T12:19:45;6.40;99.90
48575;DHT22;34352;51.084;3.712;2024-02-26T12:22:13;6.40;99.90
48575;DHT22;34352;51.084;3.712;2024-02-26T12:24:41;6.40;99.90
48575;DHT22;34352;51.084;3.712;2024-02-26T12:27:07;6.50;99.90
48575;DHT22;34352;51.084;3.712;2024-02-26T12:29:34;6.50;99.90
48575;DHT22;34352;51.084;3.712;2024-02-26T12:32:02;6.50;99.90
48575;DHT22;34352;51.084;3.712;2024-02-26T12:34:29;6.50;99.90
48575;DHT22;34352;51.084;3.712;2024-02-26T12:36:55;6.50;99.90
48575;DHT22;34352;51.084;3.712;2024-02-26T12:39:22;6.40;99.90
48575;DHT22;34352;51.084;3.712;2024-02-26T12:41:48;6.40;99.90
48575;DHT22;34352;51.084;3.712;2024-02-26T12:44:26;6.50;99.90
48575;DHT22;34352;51.084;3.712;2024-02-26T12:47:03;6.40;99.90
48575;DHT22;34352;51.084;3.712;2024-02-26T12:49:30;6.50;99.90
48575;DHT22;34352;51.084;3.712;2024-02-26T12:51:56;6.30;99.90
48575;DHT22;34352;51.084;3.712;2024-02-26T12:54:28;6.40;99.90
48575;DHT22;34352;51.084;3.712;2024-02-26T12:57:04;6.50;99.90
48575;DHT22;34352;51.084;3.712;2024-02-26T12:59:34;6.50;99.90
48575;DHT22;34352;51.084;3.712;2024-02-26T13:02:02;6.50;99.90
48575;DHT22;34352;51.084;3.712;2024-02-26T13:04:30;6.60;99.90
48575;DHT22;34352;51.084;3.712;2024-02-26T13:06:58;6.50;99.90
48575;DHT22;34352;51.084;3.712;2024-02-26T13:09:33;6.50;99.90
48575;DHT22;34352;51.084;3.712;2024-02-26T13:12:08;6.50;99.90
48575;DHT22;34352;51.084;3.712;2024-02-26T13:14:36;6.50;99.90
48575;DHT22;34352;51.084;3.712;2024-02-26T13:17:05;6.60;99.90
48575;DHT22;34352;51.084;3.712;2024-02-26T13:19:31;6.50;99.90
48575;DHT22;34352;51.084;3.712;2024-02-26T13:22:06;6.50;99.90
48575;DHT22;34352;51.084;3.712;2024-02-26T13:24:38;6.50;99.90
48575;DHT22;34352;51.084;3.712;2024-02-26T13:27:04;6.60;99.90
48575;DHT22;34352;51.084;3.712;2024-02-26T13:29:38;6.60;99.90
48575;DHT22;34352;51.084;3.712;2024-02-26T13:32:11;6.60;99.90
48575;DHT22;34352;51.084;3.712;2024-02-26T13:37:49;6.60;99.90
48575;DHT22;34352;51.084;3.712;2024-02-26T13:40:26;6.60;99.90
48575;DHT22;34352;51.084;3.712;2024-02-26T13:42:53;6.70;99.90
48575;DHT22;34352;51.084;3.712;2024-02-26T13:45:23;6.60;99.90
48575;DHT22;34352;51.084;3.712;2024-02-26T13:47:53;6.50;99.90
48575;DHT22;34352;51.084;3.712;2024-02-26T13:50:25;6.50;99.90
48575;DHT22;34352;51.084;3.712;2024-02-26T13:52:57;6.50;99.90
48575;DHT22;34352;51.084;3.712;2024-02-26T13:55:31;6.50;99.90
48575;DHT22;34352;51.084;3.712;2024-02-26T13:58:14;6.50;99.90
48575;DHT22;34352;51.084;3.712;2024-02-26T14:00:40;6.50;99.90
48575;DHT22;34352;51.084;3.712;2024-02-26T14:03:12;6.60;99.90
48575;DHT22;34352;51.084;3.712;2024-02-26T14:05:37;6.60;99.90
48575;DHT22;34352;51.084;3.712;2024-02-26T14:08:03;6.60;99.90
48575;DHT22;34352;51.084;3.712;2024-02-26T14:10:29;6.60;99.90
48575;DHT22;34352;51.084;3.712;2024-02-26T14:12:58;6.60;99.90
48575;DHT22;34352;51.084;3.712;2024-02-26T14:15:32;6.60;99.90
48575;DHT22;34352;51.084;3.712;2024-02-26T14:17:59;6.60;99.90
48575;DHT22;34352;51.084;3.712;2024-02-26T14:20:26;6.70;99.90
48575;DHT22;34352;51.084;3.712;2024-02-26T14:22:59;6.60;99.90
48575;DHT22;34352;51.084;3.712;2024-02-26T14:25:35;6.60;99.90
48575;DHT22;34352;51.084;3.712;2024-02-26T14:28:01;6.70;99.90
48575;DHT22;34352;51.084;3.712;2024-02-26T14:30:26;6.70;99.90
48575;DHT22;34352;51.084;3.712;2024-02-26T14:33:00;6.80;99.90
48575;DHT22;34352;51.084;3.712;2024-02-26T14:35:31;6.70;99.90
48575;DHT22;34352;51.084;3.712;2024-02-26T14:37:57;6.70;99.90
48575;DHT22;34352;51.084;3.712;2024-02-26T14:40:36;6.90;99.90
48575;DHT22;34352;51.084;3.712;2024-02-26T14:43:12;6.80;99.90
48575;DHT22;34352;51.084;3.712;2024-02-26T14:45:42;6.70;99.90
48575;DHT22;34352;51.084;3.712;2024-02-26T14:48:21;6.70;99.90
48575;DHT22;34352;51.084;3.712;2024-02-26T14:50:54;6.60;99.90
48575;DHT22;34352;51.084;3.712;2024-02-26T14:53:21;6.80;99.90
48575;DHT22;34352;51.084;3.712;2024-02-26T14:55:48;6.70;99.90
48575;DHT22;34352;51.084;3.712;2024-02-26T14:58:18;6.60;99.90
48575;DHT22;34352;51.084;3.712;2024-02-26T15:01:16;6.70;99.90
48575;DHT22;34352;51.084;3.712;2024-02-26T15:03:54;6.60;99.90
48575;DHT22;34352;51.084;3.712;2024-02-26T15:06:57;6.70;99.90
48575;DHT22;34352;51.084;3.712;2024-02-26T15:12:45;6.90;99.90
48575;DHT22;34352;51.084;3.712;2024-02-26T15:15:15;6.90;99.90
48575;DHT22;34352;51.084;3.712;2024-02-26T15:17:43;6.90;99.90
48575;DHT22;34352;51.084;3.712;2024-02-26T15:20:17;6.80;99.90
48575;DHT22;34352;51.084;3.712;2024-02-26T15:22:55;6.70;99.90
48575;DHT22;34352;51.084;3.712;2024-02-26T15:25:22;6.80;99.90
48575;DHT22;34352;51.084;3.712;2024-02-26T15:27:49;6.70;99.90
48575;DHT22;34352;51.084;3.712;2024-02-26T15:30:15;6.80;99.90
48575;DHT22;34352;51.084;3.712;2024-02-26T15:32:42;6.70;99.90
48575;DHT22;34352;51.084;3.712;2024-02-26T15:35:10;6.80;99.90
48575;DHT22;34352;51.084;3.712;2024-02-26T15:37:37;6.80;99.90
48575;DHT22;34352;51.084;3.712;2024-02-26T15:40:04;6.90;99.90
48575;DHT22;34352;51.084;3.712;2024-02-26T15:42:33;7.00;99.90
48575;DHT22;34352;51.084;3.712;2024-02-26T15:44:58;6.90;99.90
48575;DHT22;34352;51.084;3.712;2024-02-26T15:47:27;6.90;99.90
48575;DHT22;34352;51.084;3.712;2024-02-26T15:50:06;6.90;99.90
48575;DHT22;34352;51.084;3.712;2024-02-26T15:52:45;6.80;99.90
48575;DHT22;34352;51.084;3.712;2024-02-26T15:55:23;6.90;99.90
48575;DHT22;34352;51.084;3.712;2024-02-26T15:57:51;6.90;99.90
48575;DHT22;34352;51.084;3.712;2024-02-26T16:00:17;6.80;99.90
48575;DHT22;34352;51.084;3.712;2024-02-26T16:06:01;6.80;99.90
48575;DHT22;34352;51.084;3.712;2024-02-26T16:08:45;6.70;99.90
48575;DHT22;34352;51.084;3.712;2024-02-26T16:11:11;6.90;99.90
48575;DHT22;34352;51.084;3.712;2024-02-26T16:17:24;6.70;99.90
48575;DHT22;34352;51.084;3.712;2024-02-26T16:19:51;6.60;99.90
48575;DHT22;34352;51.084;3.712;2024-02-26T16:22:42;6.60;99.90
48575;DHT22;34352;51.084;3.712;2024-02-26T16:25:19;6.60;99.90